Time;durP1;ratioP1;P1;durP2;ratioP2;P2;SDS_P1;SDS_P2;PMS_P1;PMS_P2;Temp;Humidity;BMP_temperature;BMP_pressure;BME280_temperature;BME280_humidity;BME280_pressure;Samples;Min_cycle;Max_cycle;Signal;HPM_P1;HPM_P2
2023/06/21 00:01:53;;;;;;;11.67;8.73;;;23.00;99.90;;;;;;10215225;28;20235;-67
2023/06/21 00:06:53;;;;;;;10.80;8.67;;;23.00;99.90;;;;;;10232040;28;20233;-66
2023/06/21 00:11:55;;;;;;;9.40;8.47;;;22.90;99.90;;;;;;10228671;28;20727;-67
2023/06/21 00:16:56;;;;;;;13.67;8.07;;;22.80;99.90;;;;;;10226602;28;20233;-69
2023/06/21 00:21:57;;;;;;;11.40;8.40;;;22.80;99.90;;;;;;10229087;28;20227;-67
2023/06/21 00:26:57;;;;;;;14.87;9.67;;;22.70;99.90;;;;;;10227348;28;20240;-67
2023/06/21 00:31:59;;;;;;;12.50;9.40;;;22.70;99.90;;;;;;10231665;28;20227;-67
2023/06/21 00:37:03;;;;;;;13.03;8.87;;;22.60;99.90;;;;;;10229487;28;20281;-67
2023/06/21 00:42:04;;;;;;;12.27;8.80;;;22.60;99.90;;;;;;10264349;28;20231;-68
2023/06/21 00:47:04;;;;;;;8.67;7.67;;;22.50;99.90;;;;;;10220172;28;20240;-68
2023/06/21 00:52:05;;;;;;;9.20;8.17;;;22.50;99.90;;;;;;10232405;28;20223;-67
2023/06/21 00:57:07;;;;;;;13.93;8.50;;;22.40;99.90;;;;;;10224645;28;20240;-67
2023/06/21 01:02:07;;;;;;;9.73;8.40;;;22.40;99.90;;;;;;10236212;28;20627;-70
2023/06/21 01:07:32;;;;;;;9.27;8.37;;;22.40;99.90;;;;;;10226407;28;20233;-71
2023/06/21 01:13:07;;;;;;;11.43;9.27;;;22.40;99.90;;;;;;10230775;28;20239;-71
2023/06/21 01:18:13;;;;;;;9.73;8.40;;;22.40;99.90;;;;;;10224724;28;20757;-68
2023/06/21 01:23:42;;;;;;;11.27;8.83;;;22.30;99.90;;;;;;10232545;28;20326;-71
2023/06/21 01:29:11;;;;;;;11.70;9.17;;;22.20;99.90;;;;;;10232427;28;20277;-70
2023/06/21 01:34:14;;;;;;;11.97;9.67;;;22.20;99.90;;;;;;10227823;28;20254;-70
2023/06/21 01:39:15;;;;;;;10.30;8.37;;;22.20;99.90;;;;;;10226601;28;20228;-68
2023/06/21 01:44:16;;;;;;;11.03;9.00;;;22.20;99.90;;;;;;10225140;28;20239;-68
2023/06/21 01:49:17;;;;;;;12.40;9.00;;;22.10;99.90;;;;;;10220386;28;20236;-71
2023/06/21 01:54:20;;;;;;;11.80;10.10;;;22.00;99.90;;;;;;10230007;28;20223;-67
2023/06/21 01:59:22;;;;;;;13.40;9.90;;;22.00;99.90;;;;;;10226138;28;20290;-71
2023/06/21 02:04:23;;;;;;;10.57;9.60;;;21.90;99.90;;;;;;10234484;28;20266;-69
2023/06/21 02:09:25;;;;;;;11.93;10.00;;;21.80;99.90;;;;;;10229864;28;20231;-69
2023/06/21 02:14:26;;;;;;;10.20;9.00;;;21.70;99.90;;;;;;10218471;28;20967;-69
2023/06/21 02:19:26;;;;;;;14.50;10.00;;;21.70;99.90;;;;;;10233458;28;20342;-68
2023/06/21 02:24:27;;;;;;;15.80;10.20;;;21.60;99.90;;;;;;10226982;28;20229;-71
2023/06/21 02:29:28;;;;;;;13.20;10.60;;;21.50;99.90;;;;;;10226220;28;20236;-71
2023/06/21 02:34:28;;;;;;;11.73;10.40;;;21.50;99.90;;;;;;10225193;28;20215;-70
2023/06/21 02:39:29;;;;;;;15.20;10.37;;;21.50;99.90;;;;;;10228675;28;20247;-69
2023/06/21 02:44:29;;;;;;;13.40;10.07;;;21.40;99.90;;;;;;10218608;28;20244;-68
2023/06/21 02:49:36;;;;;;;12.37;10.50;;;21.40;99.90;;;;;;10227615;28;20227;-69
2023/06/21 02:54:36;;;;;;;12.00;10.20;;;21.30;99.90;;;;;;10222620;28;20376;-68
2023/06/21 02:59:37;;;;;;;14.47;10.27;;;21.30;99.90;;;;;;10234307;28;20249;-70
2023/06/21 03:04:39;;;;;;;13.57;11.03;;;21.30;99.90;;;;;;10220412;28;20235;-69
2023/06/21 03:09:39;;;;;;;11.90;10.43;;;21.20;99.90;;;;;;10223216;28;20702;-67
2023/06/21 03:14:41;;;;;;;15.20;10.70;;;21.20;99.90;;;;;;10212911;28;20226;-68
2023/06/21 03:19:43;;;;;;;13.23;10.43;;;21.20;99.90;;;;;;10231867;28;20226;-67
2023/06/21 03:24:43;;;;;;;11.73;10.53;;;21.20;99.90;;;;;;10229141;28;20220;-67
2023/06/21 03:29:44;;;;;;;12.23;9.77;;;21.20;99.90;;;;;;10228792;28;20231;-67
2023/06/21 03:34:44;;;;;;;11.73;10.53;;;21.10;99.90;;;;;;10213053;28;20643;-67
2023/06/21 03:39:45;;;;;;;13.50;9.77;;;21.20;99.90;;;;;;10223585;28;20699;-67
2023/06/21 03:44:46;;;;;;;11.10;9.77;;;21.30;99.90;;;;;;10227320;28;20226;-68
2023/06/21 03:49:46;;;;;;;10.63;9.53;;;21.40;99.90;;;;;;10239556;28;20317;-71
2023/06/21 03:54:47;;;;;;;12.40;10.00;;;21.60;99.90;;;;;;10237588;28;20231;-69
2023/06/21 03:59:47;;;;;;;14.70;9.50;;;21.70;99.90;;;;;;10236185;28;20223;-70
2023/06/21 04:04:48;;;;;;;11.40;8.80;;;21.80;99.90;;;;;;10235810;28;20620;-70
2023/06/21 04:09:49;;;;;;;11.17;9.00;;;21.90;99.90;;;;;;10237934;28;20223;-70
2023/06/21 04:14:50;;;;;;;12.50;8.47;;;21.90;99.90;;;;;;10236240;28;20217;-70
2023/06/21 04:19:50;;;;;;;13.93;8.83;;;22.00;99.90;;;;;;10239128;28;20223;-68
2023/06/21 04:24:51;;;;;;;10.67;8.07;;;22.10;99.90;;;;;;10234995;28;20369;-69
2023/06/21 04:29:52;;;;;;;15.33;9.57;;;22.20;99.90;;;;;;10234003;28;20254;-68
2023/06/21 04:34:53;;;;;;;10.03;8.00;;;22.20;99.90;;;;;;10225701;28;20256;-72
2023/06/21 04:39:53;;;;;;;9.23;8.33;;;22.20;99.90;;;;;;10239282;28;20595;-71
2023/06/21 04:44:54;;;;;;;11.63;8.20;;;22.20;99.90;;;;;;10224655;28;20235;-74
2023/06/21 04:49:55;;;;;;;10.10;8.30;;;22.30;99.90;;;;;;10227795;28;20223;-72
2023/06/21 04:54:59;;;;;;;11.20;8.13;;;22.50;99.90;;;;;;10224587;28;20873;-71
2023/06/21 05:00:06;;;;;;;13.67;9.50;;;22.80;99.90;;;;;;10230670;28;20225;-71
2023/06/21 05:05:07;;;;;;;11.10;8.33;;;23.40;99.90;;;;;;10233744;28;20288;-72
2023/06/21 05:10:09;;;;;;;11.67;7.87;;;24.00;99.90;;;;;;10235847;28;20425;-73
2023/06/21 05:15:10;;;;;;;10.03;7.87;;;24.10;99.90;;;;;;10216111;28;20248;-73
2023/06/21 05:20:10;;;;;;;11.33;6.93;;;24.10;99.90;;;;;;10223630;28;20201;-71
2023/06/21 05:25:14;;;;;;;11.47;8.20;;;24.70;99.90;;;;;;10224148;28;20202;-72
2023/06/21 05:30:15;;;;;;;13.37;7.60;;;24.90;99.90;;;;;;10224027;28;20272;-66
2023/06/21 05:35:16;;;;;;;16.47;8.27;;;24.80;99.90;;;;;;10221121;28;20207;-67
2023/06/21 05:40:17;;;;;;;9.70;8.60;;;24.40;99.90;;;;;;10228385;28;20210;-67
2023/06/21 05:45:20;;;;;;;11.47;7.83;;;24.00;99.90;;;;;;10224259;28;20184;-68
2023/06/21 05:50:20;;;;;;;12.87;8.47;;;23.90;99.90;;;;;;10219784;28;20221;-68
2023/06/21 05:55:21;;;;;;;10.77;7.83;;;23.90;99.90;;;;;;10221011;28;20203;-68
2023/06/21 06:00:21;;;;;;;14.13;8.80;;;24.00;99.90;;;;;;10221649;28;20625;-67
2023/06/21 06:05:22;;;;;;;12.40;8.67;;;24.10;99.90;;;;;;10232751;28;20202;-68
2023/06/21 06:10:22;;;;;;;12.67;9.83;;;24.20;99.90;;;;;;10218790;28;20220;-68
2023/06/21 06:15:23;;;;;;;12.37;8.60;;;24.20;99.90;;;;;;10221882;28;20278;-68
2023/06/21 06:20:26;;;;;;;13.10;8.63;;;24.10;99.90;;;;;;10227502;28;20188;-68
2023/06/21 06:25:26;;;;;;;12.80;9.00;;;24.10;99.90;;;;;;10213490;28;20192;-67
2023/06/21 06:30:27;;;;;;;10.70;8.77;;;24.20;99.90;;;;;;10226255;28;20227;-67
2023/06/21 06:35:28;;;;;;;11.37;9.47;;;24.10;99.90;;;;;;10229380;28;20717;-67
2023/06/21 06:40:28;;;;;;;11.33;8.40;;;24.30;99.90;;;;;;10218714;28;20702;-67
2023/06/21 06:45:29;;;;;;;10.10;7.07;;;24.60;99.90;;;;;;10221038;28;20276;-67
2023/06/21 06:50:29;;;;;;;13.27;8.20;;;25.00;99.90;;;;;;10217515;28;20232;-68
2023/06/21 06:55:30;;;;;;;9.90;8.30;;;25.20;99.90;;;;;;10221263;28;20235;-68
2023/06/21 07:00:30;;;;;;;13.37;8.97;;;25.20;99.90;;;;;;10225419;28;20229;-67
2023/06/21 07:05:35;;;;;;;13.00;9.80;;;25.10;99.90;;;;;;10215819;28;20227;-67
2023/06/21 07:10:35;;;;;;;12.90;9.83;;;25.00;99.90;;;;;;10223382;28;20264;-68
2023/06/21 07:15:36;;;;;;;16.57;10.37;;;24.70;99.90;;;;;;10215683;28;20620;-68
2023/06/21 07:20:37;;;;;;;13.57;10.83;;;24.70;99.90;;;;;;10221302;28;20244;-68
2023/06/21 07:25:37;;;;;;;13.27;9.83;;;25.00;99.90;;;;;;10216198;28;20216;-66
2023/06/21 07:30:39;;;;;;;13.00;10.70;;;25.50;99.90;;;;;;10229934;28;20743;-67
2023/06/21 07:35:39;;;;;;;15.87;10.00;;;26.70;99.90;;;;;;10229724;28;20931;-66
2023/06/21 07:40:40;;;;;;;11.73;8.70;;;27.60;99.90;;;;;;10231766;28;20234;-67
2023/06/21 07:45:41;;;;;;;9.17;7.10;;;29.00;99.90;;;;;;10222585;28;20605;-67
2023/06/21 07:50:42;;;;;;;11.83;7.60;;;33.00;99.20;;;;;;10215427;28;20303;-68
2023/06/21 07:55:43;;;;;;;9.23;5.97;;;34.90;87.20;;;;;;10229448;28;20219;-69
2023/06/21 08:00:44;;;;;;;13.50;5.53;;;36.20;75.20;;;;;;10214293;28;20692;-68
2023/06/21 08:05:45;;;;;;;8.83;6.17;;;38.10;62.70;;;;;;10221921;28;20258;-68
2023/06/21 08:10:45;;;;;;;7.07;5.33;;;39.30;55.00;;;;;;10221915;28;20583;-68
2023/06/21 08:15:46;;;;;;;17.97;7.03;;;39.90;52.30;;;;;;10213784;28;20270;-67
2023/06/21 08:20:46;;;;;;;10.20;5.73;;;40.50;50.40;;;;;;10220522;28;20297;-68
2023/06/21 08:25:48;;;;;;;11.30;5.83;;;38.20;51.80;;;;;;10222698;28;20236;-68
2023/06/21 08:30:49;;;;;;;7.97;5.30;;;36.90;54.90;;;;;;10234739;28;20295;-67
2023/06/21 08:35:49;;;;;;;7.07;5.27;;;37.00;54.50;;;;;;10233892;28;20216;-70
2023/06/21 08:40:50;;;;;;;6.20;5.60;;;37.60;54.30;;;;;;10229846;28;20215;-68
2023/06/21 08:45:52;;;;;;;7.73;5.60;;;38.30;52.20;;;;;;10220481;28;20652;-67
2023/06/21 08:50:54;;;;;;;6.63;4.87;;;37.30;53.30;;;;;;10226716;28;20212;-67
2023/06/21 08:55:56;;;;;;;7.00;5.23;;;36.50;54.90;;;;;;10219784;28;20227;-67
2023/06/21 09:00:59;;;;;;;9.03;5.13;;;35.20;56.60;;;;;;10221172;28;20509;-67
2023/06/21 09:06:05;;;;;;;7.33;5.43;;;33.70;59.30;;;;;;10238528;28;20227;-68
2023/06/21 09:11:07;;;;;;;5.93;5.27;;;33.10;62.00;;;;;;10234518;28;20295;-67
2023/06/21 09:16:09;;;;;;;7.60;5.10;;;33.60;59.90;;;;;;10219669;28;20950;-69
2023/06/21 09:21:11;;;;;;;8.13;5.30;;;33.70;59.70;;;;;;10224069;28;20225;-69
2023/06/21 09:26:12;;;;;;;6.30;5.53;;;34.20;58.90;;;;;;10222405;28;20722;-69
2023/06/21 09:31:12;;;;;;;8.17;5.23;;;34.50;58.20;;;;;;10225976;28;20211;-69
2023/06/21 09:36:14;;;;;;;5.80;4.90;;;34.60;58.10;;;;;;10230638;28;20224;-68
2023/06/21 09:41:19;;;;;;;5.03;4.63;;;35.30;56.90;;;;;;10221760;28;20220;-69
2023/06/21 09:46:20;;;;;;;5.50;4.03;;;36.40;54.90;;;;;;10229757;28;20235;-69
2023/06/21 09:51:24;;;;;;;5.77;4.23;;;38.40;51.30;;;;;;10222421;28;20219;-68
2023/06/21 09:56:24;;;;;;;5.40;4.63;;;41.00;46.10;;;;;;10225188;28;20215;-67
2023/06/21 10:01:34;;;;;;;4.80;4.23;;;40.90;44.70;;;;;;10224186;28;20219;-68
2023/06/21 10:06:35;;;;;;;4.80;4.00;;;40.60;44.90;;;;;;10218634;28;20236;-68
2023/06/21 10:11:37;;;;;;;4.93;4.30;;;39.80;46.70;;;;;;10224978;28;20274;-69
2023/06/21 10:16:38;;;;;;;4.43;4.03;;;38.90;46.10;;;;;;10230846;28;20243;-68
2023/06/21 10:21:39;;;;;;;5.27;4.57;;;38.80;45.60;;;;;;10225317;28;20257;-69
2023/06/21 10:26:42;;;;;;;12.50;4.80;;;39.40;43.80;;;;;;10224619;28;20220;-69
2023/06/21 10:31:44;;;;;;;6.17;5.10;;;39.10;44.10;;;;;;10225465;28;20235;-69
2023/06/21 10:36:48;;;;;;;7.30;5.67;;;38.40;46.10;;;;;;10225204;28;20228;-68
2023/06/21 10:41:49;;;;;;;5.40;4.50;;;37.40;48.90;;;;;;10217976;28;20228;-68
2023/06/21 10:46:50;;;;;;;5.50;5.00;;;36.20;49.70;;;;;;10224106;28;20239;-70
2023/06/21 10:51:52;;;;;;;6.47;5.33;;;35.00;51.90;;;;;;10215876;28;20781;-69
2023/06/21 10:56:53;;;;;;;7.67;5.40;;;34.00;52.50;;;;;;10223195;28;20238;-69
2023/06/21 11:01:54;;;;;;;7.07;5.30;;;33.50;54.10;;;;;;10224894;28;20219;-68
2023/06/21 11:07:00;;;;;;;10.10;5.83;;;33.60;54.30;;;;;;10234264;28;20226;-68
2023/06/21 11:12:07;;;;;;;6.13;5.60;;;34.60;52.30;;;;;;10222233;28;20239;-67
2023/06/21 11:17:12;;;;;;;6.23;5.27;;;35.10;51.60;;;;;;10225227;28;20215;-68
2023/06/21 11:22:24;;;;;;;7.83;5.80;;;34.80;51.70;;;;;;10227507;28;20771;-67
2023/06/21 11:27:26;;;;;;;6.30;5.67;;;34.10;53.00;;;;;;10227427;28;20271;-67
2023/06/21 11:32:29;;;;;;;8.13;5.53;;;33.30;55.00;;;;;;10231712;28;20253;-67
2023/06/21 11:37:35;;;;;;;6.03;5.43;;;33.40;54.70;;;;;;10215712;28;20578;-69
2023/06/21 11:42:47;;;;;;;6.37;5.77;;;33.70;54.60;;;;;;10233960;28;20269;-74
2023/06/21 11:48:00;;;;;;;9.77;5.90;;;34.20;54.50;;;;;;10216998;28;20254;-74
2023/06/21 11:53:23;;;;;;;7.80;5.87;;;34.60;52.20;;;;;;10224749;28;20239;-76
2023/06/21 11:58:25;;;;;;;5.83;5.23;;;34.20;53.60;;;;;;10219935;28;20224;-75
2023/06/21 12:03:25;;;;;;;13.23;5.93;;;34.20;53.20;;;;;;10227758;28;20223;-75
2023/06/21 12:08:48;;;;;;;21.30;7.00;;;34.10;53.30;;;;;;10224459;28;20594;-75
2023/06/21 12:13:49;;;;;;;9.63;6.00;;;33.70;53.80;;;;;;10221755;28;20329;-75
2023/06/21 12:18:49;;;;;;;6.83;5.90;;;33.40;55.20;;;;;;10236893;28;20257;-74
2023/06/21 12:23:57;;;;;;;5.83;5.33;;;33.40;54.80;;;;;;10230755;28;20224;-75
2023/06/21 12:28:58;;;;;;;17.03;5.60;;;33.30;55.80;;;;;;10231877;28;20814;-74
2023/06/21 12:34:02;;;;;;;6.23;5.20;;;33.40;55.40;;;;;;10228513;28;20289;-74
2023/06/21 12:39:10;;;;;;;8.77;5.23;;;32.90;56.30;;;;;;10223825;28;20224;-76
2023/06/21 12:44:31;;;;;;;11.43;5.77;;;32.70;56.40;;;;;;10236281;28;20924;-74
2023/06/21 12:49:32;;;;;;;5.83;4.97;;;32.60;56.80;;;;;;10236052;28;20223;-76
2023/06/21 12:54:33;;;;;;;10.80;5.57;;;32.90;56.90;;;;;;10229580;28;20237;-75
2023/06/21 12:59:33;;;;;;;7.60;5.50;;;33.10;56.40;;;;;;10222653;28;20243;-74
2023/06/21 13:04:34;;;;;;;6.57;5.73;;;33.00;56.00;;;;;;10220880;28;20223;-75
2023/06/21 13:09:34;;;;;;;8.57;5.40;;;32.60;56.80;;;;;;10232166;28;20607;-75
2023/06/21 13:14:35;;;;;;;10.30;5.40;;;32.20;57.80;;;;;;10247368;28;20245;-75
2023/06/21 13:19:38;;;;;;;10.93;5.07;;;32.00;57.20;;;;;;10227821;28;20349;-74
2023/06/21 13:24:38;;;;;;;7.67;5.27;;;32.20;57.30;;;;;;10227557;28;20740;-75
2023/06/21 13:29:39;;;;;;;12.17;4.97;;;32.30;56.60;;;;;;10227863;28;20254;-75
2023/06/21 13:34:40;;;;;;;5.73;4.40;;;32.40;56.00;;;;;;10221241;28;20250;-76
2023/06/21 13:39:41;;;;;;;5.20;4.10;;;32.40;54.80;;;;;;10227703;28;20702;-75
2023/06/21 13:44:41;;;;;;;5.33;4.50;;;32.30;55.30;;;;;;10227481;28;20223;-75
2023/06/21 13:49:48;;;;;;;4.80;4.13;;;32.40;54.90;;;;;;10220508;28;20695;-76
2023/06/21 13:54:49;;;;;;;5.53;4.80;;;32.30;54.90;;;;;;10229469;28;20318;-76
2023/06/21 13:59:50;;;;;;;7.13;4.70;;;32.00;56.20;;;;;;10225993;28;20220;-75
2023/06/21 14:04:51;;;;;;;10.23;4.93;;;31.60;56.90;;;;;;10226093;28;20629;-77
2023/06/21 14:09:51;;;;;;;4.63;4.23;;;31.50;56.30;;;;;;10219275;28;20296;-76
2023/06/21 14:14:52;;;;;;;5.50;4.60;;;31.60;56.30;;;;;;10225130;28;20222;-76
2023/06/21 14:19:53;;;;;;;5.80;5.00;;;31.50;56.40;;;;;;10218985;28;20240;-74
2023/06/21 14:24:53;;;;;;;7.33;4.50;;;31.50;56.90;;;;;;10222539;28;20310;-75
2023/06/21 14:29:58;;;;;;;10.97;4.60;;;31.40;57.30;;;;;;10218175;28;20228;-75
2023/06/21 14:34:59;;;;;;;6.77;4.67;;;31.60;56.90;;;;;;10223019;28;20222;-75
2023/06/21 14:40:02;;;;;;;5.33;4.27;;;31.80;55.40;;;;;;10236248;28;20331;-75
2023/06/21 14:45:03;;;;;;;6.07;4.33;;;31.80;55.70;;;;;;10222418;28;20219;-75
2023/06/21 14:50:05;;;;;;;5.03;4.30;;;32.00;54.90;;;;;;10219815;28;20228;-75
2023/06/21 14:55:05;;;;;;;5.70;4.90;;;32.00;55.00;;;;;;10229688;28;20227;-76
2023/06/21 15:00:10;;;;;;;5.60;4.07;;;32.00;55.50;;;;;;10225922;28;20206;-75
2023/06/21 15:05:14;;;;;;;5.20;4.30;;;31.80;55.90;;;;;;10221265;28;20197;-75
2023/06/21 15:10:14;;;;;;;7.37;4.67;;;31.90;56.20;;;;;;10230787;28;20208;-77
2023/06/21 15:15:16;;;;;;;7.47;4.23;;;31.90;56.10;;;;;;10227508;28;20704;-74
2023/06/21 15:20:16;;;;;;;5.00;4.10;;;31.70;56.80;;;;;;10220695;28;20192;-75
2023/06/21 15:25:17;;;;;;;9.23;4.53;;;31.50;57.00;;;;;;10216371;28;20219;-75
2023/06/21 15:30:18;;;;;;;5.63;4.57;;;31.80;56.20;;;;;;10220226;28;20214;-73
2023/06/21 15:35:18;;;;;;;5.03;4.53;;;32.20;56.40;;;;;;10227651;28;20194;-76
2023/06/21 15:40:19;;;;;;;5.03;4.43;;;32.20;56.10;;;;;;10226826;28;20762;-77
2023/06/21 15:45:19;;;;;;;4.60;4.20;;;32.10;56.10;;;;;;10247837;28;20191;-76
2023/06/21 15:50:20;;;;;;;5.40;4.67;;;32.00;56.10;;;;;;10231003;28;20686;-75
2023/06/21 15:55:23;;;;;;;6.10;4.70;;;31.80;56.20;;;;;;10226895;28;20196;-76
2023/06/21 16:00:23;;;;;;;5.93;4.57;;;31.60;56.70;;;;;;10233141;28;20211;-75
2023/06/21 16:05:24;;;;;;;5.53;4.43;;;31.40;56.60;;;;;;10225065;28;20226;-74
2023/06/21 16:10:24;;;;;;;6.63;4.50;;;31.30;57.10;;;;;;10227569;28;20214;-74
2023/06/21 16:15:25;;;;;;;4.97;4.50;;;31.20;57.50;;;;;;10232735;28;20615;-75
2023/06/21 16:20:27;;;;;;;7.50;4.73;;;30.80;58.50;;;;;;10262090;28;20223;-74
2023/06/21 16:25:28;;;;;;;6.37;4.60;;;30.70;58.50;;;;;;10240333;28;20634;-72
2023/06/21 16:30:29;;;;;;;7.17;4.60;;;30.70;58.30;;;;;;10230795;28;20227;-72
2023/06/21 16:35:29;;;;;;;6.07;4.50;;;30.70;58.50;;;;;;10236678;28;20249;-76
2023/06/21 16:40:31;;;;;;;6.57;4.50;;;30.60;58.90;;;;;;10229214;28;20641;-74
2023/06/21 16:45:31;;;;;;;5.43;4.87;;;30.40;59.60;;;;;;10233097;28;20694;-73
2023/06/21 16:50:32;;;;;;;7.00;5.10;;;30.30;59.60;;;;;;10238239;28;20241;-75
2023/06/21 16:55:33;;;;;;;6.80;4.50;;;30.30;60.20;;;;;;10235342;28;20227;-77
2023/06/21 17:00:33;;;;;;;6.80;4.70;;;30.30;60.10;;;;;;10228335;28;20224;-76
2023/06/21 17:05:34;;;;;;;5.57;5.07;;;30.30;60.70;;;;;;10237630;28;20311;-76
2023/06/21 17:10:35;;;;;;;10.37;5.20;;;30.20;60.30;;;;;;10234186;28;20665;-75
2023/06/21 17:15:35;;;;;;;6.90;5.20;;;30.10;60.40;;;;;;10237497;28;20224;-78
2023/06/21 17:20:36;;;;;;;5.83;5.20;;;30.10;60.60;;;;;;10234774;28;20866;-74
2023/06/21 17:25:37;;;;;;;5.17;4.63;;;30.20;61.60;;;;;;10234727;28;20756;-73
2023/06/21 17:30:38;;;;;;;6.10;5.50;;;30.20;61.90;;;;;;10249756;28;20234;-74
2023/06/21 17:35:38;;;;;;;6.77;5.13;;;30.00;62.30;;;;;;10237389;28;20593;-73
2023/06/21 17:40:39;;;;;;;6.73;5.33;;;29.90;63.10;;;;;;10269951;28;20281;-73
2023/06/21 17:45:40;;;;;;;7.07;5.50;;;29.80;64.00;;;;;;10243957;28;20318;-72
2023/06/21 17:50:41;;;;;;;7.07;5.57;;;29.70;64.50;;;;;;10236956;28;20243;-76
2023/06/21 17:55:41;;;;;;;16.30;8.83;;;29.40;65.20;;;;;;10231133;28;20234;-75
2023/06/21 18:00:42;;;;;;;10.43;5.70;;;29.20;65.90;;;;;;10233409;28;20289;-75
2023/06/21 18:05:42;;;;;;;7.30;5.50;;;29.00;66.80;;;;;;10240170;28;20731;-74
2023/06/21 18:10:43;;;;;;;7.50;5.50;;;28.90;67.10;;;;;;10235586;28;20235;-75
2023/06/21 18:15:44;;;;;;;10.13;5.53;;;28.80;67.10;;;;;;10223074;28;20231;-74
2023/06/21 18:20:44;;;;;;;5.90;5.30;;;28.80;67.40;;;;;;10229415;28;20265;-74
2023/06/21 18:25:45;;;;;;;6.73;5.60;;;28.70;68.20;;;;;;10273952;28;20220;-73
2023/06/21 18:30:46;;;;;;;7.27;5.80;;;28.60;69.20;;;;;;10234853;28;20234;-73
2023/06/21 18:35:46;;;;;;;8.57;5.63;;;28.50;69.80;;;;;;10234191;28;20698;-73
2023/06/21 18:40:47;;;;;;;6.47;5.43;;;28.40;70.10;;;;;;10227413;28;20223;-73
2023/06/21 18:45:47;;;;;;;8.57;5.83;;;28.30;71.20;;;;;;10233620;28;20550;-73
2023/06/21 18:50:48;;;;;;;8.87;6.03;;;28.20;71.40;;;;;;10230142;28;20239;-75
2023/06/21 18:55:49;;;;;;;7.63;6.37;;;28.00;73.50;;;;;;10223852;28;20224;-75
2023/06/21 19:00:49;;;;;;;6.80;6.13;;;27.90;74.30;;;;;;10252026;28;20218;-75
2023/06/21 19:05:50;;;;;;;7.20;6.50;;;27.80;75.40;;;;;;10250511;28;20786;-74
2023/06/21 19:10:54;;;;;;;7.13;6.43;;;27.70;76.10;;;;;;10275092;28;20229;-77
2023/06/21 19:15:55;;;;;;;6.70;6.00;;;27.50;76.70;;;;;;10257537;28;20769;-75
2023/06/21 19:20:57;;;;;;;7.13;6.03;;;27.40;77.40;;;;;;10224995;28;20277;-76
2023/06/21 19:25:57;;;;;;;7.43;6.73;;;27.30;78.00;;;;;;10229613;28;20254;-74
2023/06/21 19:30:58;;;;;;;9.73;6.53;;;27.20;78.60;;;;;;10242539;28;20834;-76
2023/06/21 19:36:01;;;;;;;8.17;6.90;;;27.10;79.10;;;;;;10237241;28;20321;-73
2023/06/21 19:41:02;;;;;;;7.37;6.70;;;27.00;80.00;;;;;;10249266;28;20219;-75
2023/06/21 19:46:02;;;;;;;7.10;6.40;;;26.90;80.60;;;;;;10227942;28;20249;-76
2023/06/21 19:51:03;;;;;;;7.60;6.83;;;26.70;81.30;;;;;;10233785;28;20242;-75
2023/06/21 19:56:04;;;;;;;8.13;6.93;;;26.70;82.10;;;;;;10232414;28;20294;-75
2023/06/21 20:01:04;;;;;;;7.40;6.70;;;26.60;82.50;;;;;;10221529;28;20222;-75
2023/06/21 20:06:05;;;;;;;7.70;6.73;;;26.40;82.90;;;;;;10222492;28;20231;-75
2023/06/21 20:11:06;;;;;;;7.37;6.60;;;26.40;83.30;;;;;;10232754;28;20241;-74
2023/06/21 20:16:12;;;;;;;8.40;7.60;;;26.30;83.90;;;;;;10218436;28;21278;-73
2023/06/21 20:21:14;;;;;;;8.37;7.30;;;26.20;84.70;;;;;;10226203;28;20233;-70
2023/06/21 20:26:14;;;;;;;8.03;6.77;;;26.10;85.50;;;;;;10235702;28;20218;-73
2023/06/21 20:31:15;;;;;;;7.63;6.83;;;26.00;86.30;;;;;;10242117;28;20219;-73
2023/06/21 20:36:21;;;;;;;8.03;7.17;;;26.00;87.90;;;;;;10238691;28;20219;-71
2023/06/21 20:41:22;;;;;;;9.70;7.17;;;25.90;88.10;;;;;;10241485;28;20230;-72
2023/06/21 20:46:28;;;;;;;8.53;7.53;;;25.80;88.70;;;;;;10221088;28;20222;-73
2023/06/21 20:51:28;;;;;;;7.90;7.03;;;25.60;89.60;;;;;;10234580;28;20280;-74
2023/06/21 20:56:29;;;;;;;8.80;7.43;;;25.60;90.10;;;;;;10235388;28;20819;-70
2023/06/21 21:01:38;;;;;;;8.03;7.23;;;25.50;90.40;;;;;;10230831;28;20224;-68
2023/06/21 21:06:41;;;;;;;7.50;6.80;;;25.40;90.90;;;;;;10231147;28;20236;-71
2023/06/21 21:11:42;;;;;;;7.80;7.00;;;25.30;91.20;;;;;;10242166;28;21361;-71
2023/06/21 21:16:43;;;;;;;7.60;6.93;;;25.20;91.60;;;;;;10228161;28;20267;-72
2023/06/21 21:21:43;;;;;;;11.17;7.43;;;25.10;92.00;;;;;;10236441;28;20227;-73
2023/06/21 21:26:44;;;;;;;7.80;6.97;;;25.00;92.60;;;;;;10237523;28;20230;-75
2023/06/21 21:31:51;;;;;;;8.10;7.40;;;24.90;93.00;;;;;;10234702;28;20239;-71
2023/06/21 21:36:52;;;;;;;8.33;7.20;;;24.80;93.30;;;;;;10238283;28;20261;-73
2023/06/21 21:41:53;;;;;;;8.63;7.83;;;24.80;93.70;;;;;;10233331;28;20276;-70
2023/06/21 21:46:53;;;;;;;8.23;7.40;;;24.70;94.30;;;;;;10241573;28;20697;-71
2023/06/21 21:51:54;;;;;;;9.00;7.47;;;24.60;94.90;;;;;;10237489;28;20280;-70
2023/06/21 21:56:54;;;;;;;8.33;7.53;;;24.50;95.50;;;;;;10229465;28;20230;-71
2023/06/21 22:01:55;;;;;;;8.13;7.33;;;24.40;96.10;;;;;;10232329;28;20232;-73
2023/06/21 22:06:56;;;;;;;8.10;7.30;;;24.40;96.60;;;;;;10239574;28;20231;-74
2023/06/21 22:11:57;;;;;;;7.83;7.00;;;24.30;97.30;;;;;;10228649;28;20246;-73
2023/06/21 22:17:01;;;;;;;7.97;7.17;;;24.20;98.00;;;;;;10228154;28;20313;-73
2023/06/21 22:22:05;;;;;;;10.00;8.80;;;24.20;98.70;;;;;;10234944;28;20228;-73
2023/06/21 22:27:06;;;;;;;8.40;7.60;;;24.10;99.60;;;;;;10237608;28;20235;-69
2023/06/21 22:32:08;;;;;;;8.40;7.60;;;24.20;99.90;;;;;;10231985;28;20219;-67
2023/06/21 22:37:08;;;;;;;8.30;7.50;;;24.10;99.90;;;;;;10229185;28;20235;-67
2023/06/21 22:42:09;;;;;;;8.90;7.73;;;24.10;99.90;;;;;;10237347;28;20223;-68
2023/06/21 22:47:15;;;;;;;8.53;7.73;;;24.10;99.90;;;;;;10236501;28;20231;-69
2023/06/21 22:52:16;;;;;;;8.57;7.67;;;24.10;99.90;;;;;;10226698;28;20220;-68
2023/06/21 22:57:16;;;;;;;7.90;7.20;;;24.20;99.90;;;;;;10238018;28;20318;-69
2023/06/21 23:02:21;;;;;;;8.07;7.27;;;24.20;99.90;;;;;;10228031;28;20417;-70
2023/06/21 23:07:22;;;;;;;8.07;7.10;;;24.20;99.90;;;;;;10235121;28;20300;-68
2023/06/21 23:12:26;;;;;;;7.97;7.17;;;24.20;99.90;;;;;;10229880;28;20258;-69
2023/06/21 23:17:28;;;;;;;8.63;7.73;;;24.10;99.90;;;;;;10231291;28;20234;-69
2023/06/21 23:22:28;;;;;;;8.73;7.93;;;24.20;99.90;;;;;;10233419;28;20236;-68
2023/06/21 23:27:36;;;;;;;7.73;7.03;;;24.10;99.90;;;;;;10237284;28;20258;-70
2023/06/21 23:32:38;;;;;;;10.60;8.67;;;24.10;99.90;;;;;;10216559;28;20524;-68
2023/06/21 23:37:39;;;;;;;17.70;9.10;;;24.10;99.90;;;;;;10227991;28;20235;-70
2023/06/21 23:42:41;;;;;;;12.40;9.33;;;23.70;99.90;;;;;;10236964;28;20223;-71
2023/06/21 23:47:42;;;;;;;12.03;8.50;;;22.40;99.90;;;;;;10222128;28;20250;-70
2023/06/21 23:52:42;;;;;;;9.23;8.20;;;22.30;99.90;;;;;;10232619;28;21629;-69
2023/06/21 23:57:43;;;;;;;9.50;8.57;;;22.30;99.90;;;;;;10231298;28;20254;-67
